Smitwijs London — PCBI — position and weather

sailwx.info

Track history (hours):
 
Tides and Currents Weather Stations Pressure Air Temp Water Temp Dewpoint Dewpoint Depression Visibility Wind Speed Wind Dir Waves Ship Positions

Smitwijs London

Last reported at 2015-Jun-30 20:34 UTC. Time now 2015-Jun-30 21:22 UTC.
Position N 51°27' E 003°42'.

Length 75 m; beam 16 m.

Type: Tug. MMSI: 244098956.

Date/timePositionNaut miles runAvg speedWind from/ knotsBaromVisibWave heightAir tempDewpointWater temp
2015-Jun-30 20:34N 51°27' E 003°42'0 0.5
2015-Jun-30 19:33N 51°27' E 003°43'0 0.0
2015-Jun-30 18:33N 51°27' E 003°43'0 0.4
2015-Jun-30 17:33N 51°27' E 003°42'1 0.9
2015-Jun-30 16:34N 51°28' E 003°42'1 0.9
2015-Jun-30 15:33N 51°28' E 003°40'0 0.0
2015-Jun-30 14:34N 51°28' E 003°40'0 0.0
2015-Jun-30 13:33N 51°28' E 003°40'0 0.0
2015-Jun-30 12:33N 51°28' E 003°40'0 0.0
2015-Jun-30 11:33N 51°28' E 003°40'0 0.0
2015-Jun-30 10:34N 51°28' E 003°40'0 0.0
2015-Jun-30 09:33N 51°28' E 003°40'0 0.0
2015-Jun-30 08:33N 51°28' E 003°40'0 0.4
2015-Jun-30 07:34N 51°27' E 003°40'0 0.4
2015-Jun-30 06:34N 51°27' E 003°40'1 0.8
2015-Jun-30 05:33N 51°28' E 003°40'0 0.0
2015-Jun-30 04:33N 51°28' E 003°40'0 0.0
2015-Jun-30 03:34N 51°28' E 003°40'0 0.0
2015-Jun-30 02:33N 51°28' E 003°40'0 0.0
2015-Jun-30 01:33N 51°28' E 003°40'0 0.0
2015-Jun-30 00:33N 51°28' E 003°40'0 0.0
2015-Jun-29 23:33N 51°28' E 003°40'0 0.0
2015-Jun-29 22:34N 51°28' E 003°40'0 0.0
2015-Jun-29 21:33N 51°28' E 003°40'0 0.0
2015-Jun-29 20:33N 51°28' E 003°40'0 0.0
2015-Jun-29 19:33N 51°28' E 003°40'2 1.7
2015-Jun-29 18:34N 51°28' E 003°43'2 1.7
2015-Jun-29 17:33N 51°28' E 003°40'0 0.0
2015-Jun-29 16:34N 51°28' E 003°40'2 2.5
2015-Jun-29 15:34N 51°25' E 003°42'1 1.0
2015-Jun-29 14:33N 51°26' E 003°41'2 1.6
2015-Jun-29 13:34N 51°28' E 003°40'5 4.6
2015-Jun-29 12:33N 51°27' E 003°33'5 5.0
2015-Jun-29 11:33N 51°30' E 003°28'5 5.3
2015-Jun-29 10:34N 51°27' E 003°34'3 2.9
2015-Jun-29 09:33N 51°26' E 003°38'3 3.2
2015-Jun-29 08:33N 51°28' E 003°43'0 0.2
2015-Jun-29 07:33N 51°28' E 003°42'0 0.0
2015-Jun-29 06:33N 51°28' E 003°42'0 0.0
2015-Jun-29 05:33N 51°28' E 003°42'0 0.0
2015-Jun-29 04:33N 51°28' E 003°42'0 0.0
2015-Jun-29 03:33N 51°28' E 003°42'0 0.5
2015-Jun-29 02:34N 51°28' E 003°43'2 2.5
2015-Jun-29 01:33N 51°26' E 003°42'7 7.4
2015-Jun-29 00:34N 51°20' E 003°49'0 0.0
2015-Jun-28 23:33N 51°20' E 003°49'0 0.0
2015-Jun-28 22:33N 51°20' E 003°49'0 0.0
2015-Jun-28 21:33N 51°20' E 003°49'0 0.0
2015-Jun-28 20:33N 51°20' E 003°49'0 0.0
2015-Jun-28 19:33N 51°20' E 003°49'0 0.0
2015-Jun-28 18:33N 51°20' E 003°49'0 0.0
2015-Jun-28 17:33N 51°20' E 003°49'0 0.0
2015-Jun-28 16:33N 51°20' E 003°49'0 0.0
2015-Jun-28 15:33N 51°20' E 003°49'0 0.0
2015-Jun-28 14:33N 51°20' E 003°49'0 0.0
2015-Jun-28 13:34N 51°20' E 003°49'0 0.0
2015-Jun-28 12:34N 51°20' E 003°49'1 1.5
2015-Jun-28 11:33N 51°20' E 003°51'0 0.3
2015-Jun-28 10:31N 51°20' E 003°51'1 1.2
2015-Jun-28 09:34N 51°20' E 003°49'0 0.0
2015-Jun-28 08:33N 51°20' E 003°49'0 0.0
2015-Jun-28 07:34N 51°20' E 003°49'0 0.0
2015-Jun-28 06:34N 51°20' E 003°49'0 0.0
2015-Jun-28 05:34N 51°20' E 003°49'0 0.0
2015-Jun-28 04:33N 51°20' E 003°49'0 0.0
2015-Jun-28 03:34N 51°20' E 003°49'0 0.0
2015-Jun-28 02:33N 51°20' E 003°49'0 0.0
2015-Jun-28 01:33N 51°20' E 003°49'0 0.0
2015-Jun-28 00:33N 51°20' E 003°49'0 0.0
2015-Jun-27 23:33N 51°20' E 003°49'0 0.0
2015-Jun-27 22:33N 51°20' E 003°49'0 0.0
2015-Jun-27 21:34N 51°20' E 003°49'0 0.0
2015-Jun-27 20:33N 51°20' E 003°49'0 0.0
2015-Jun-27 19:34N 51°20' E 003°49'0 0.0
2015-Jun-27 18:34N 51°20' E 003°49'0 0.0
2015-Jun-27 17:34N 51°20' E 003°49'0 0.0
2015-Jun-27 16:34N 51°20' E 003°49'0 0.0
2015-Jun-27 15:34N 51°20' E 003°49'0 0.0
2015-Jun-27 14:34N 51°20' E 003°49'0 0.0
2015-Jun-27 13:33N 51°20' E 003°49'0 0.0
2015-Jun-27 12:33N 51°20' E 003°49'0 0.0
2015-Jun-27 11:33N 51°20' E 003°49'0 0.0
2015-Jun-27 10:34N 51°20' E 003°49'0 0.0
2015-Jun-27 09:33N 51°20' E 003°49'0 0.0
2015-Jun-27 08:33N 51°20' E 003°49'0 0.0
2015-Jun-27 07:34N 51°20' E 003°49'0 0.0
2015-Jun-27 06:34N 51°20' E 003°49'0 0.0
2015-Jun-27 05:34N 51°20' E 003°49'0 0.0
2015-Jun-27 04:33N 51°20' E 003°49'2 2.0
2015-Jun-27 03:34N 51°21' E 003°46'2 2.0
2015-Jun-27 02:33N 51°20' E 003°49'0 0.0
2015-Jun-27 01:33N 51°20' E 003°49'0 0.0
2015-Jun-27 00:33N 51°20' E 003°49'0 0.0
2015-Jun-26 23:34N 51°20' E 003°49'0 0.0
2015-Jun-26 22:33N 51°20' E 003°49'0 0.0
2015-Jun-26 21:34N 51°20' E 003°49'3 2.7
2015-Jun-26 20:34N 51°22' E 003°45'3 2.8
2015-Jun-26 19:34N 51°20' E 003°49'0 0.0
2015-Jun-26 18:33N 51°20' E 003°49'0 0.0
2015-Jun-26 17:34N 51°20' E 003°49'1 1.2
2015-Jun-26 16:34N 51°21' E 003°48'1 1.1
2015-Jun-26 15:33N 51°20' E 003°49'0 0.0
2015-Jun-26 14:33N 51°20' E 003°49'0 0.0
2015-Jun-26 13:33N 51°20' E 003°49'0 0.0
2015-Jun-26 12:34N 51°20' E 003°49'0 0.0
2015-Jun-26 11:33N 51°20' E 003°49'0 0.0
2015-Jun-26 10:34N 51°20' E 003°49'0 0.0
2015-Jun-26 09:34N 51°20' E 003°49'0 0.0
2015-Jun-26 08:34N 51°20' E 003°49'0 0.0
2015-Jun-26 07:34N 51°20' E 003°49'0 0.0
2015-Jun-26 06:34N 51°20' E 003°49'0 0.0
2015-Jun-26 05:33N 51°20' E 003°49'0 0.0
2015-Jun-26 04:34N 51°20' E 003°49'0 0.0
2015-Jun-26 03:33N 51°20' E 003°49'1 0.5
2015-Jun-26 02:34N 51°20' E 003°49'0 0.2
2015-Jun-26 01:34N 51°20' E 003°49'8 8.2
2015-Jun-26 00:33N 51°11' E 003°48'5 5.5
2015-Jun-25 23:33N 51°06' E 003°45'4 4.5
2015-Jun-25 22:34N 51°10' E 003°48'6 5.6
2015-Jun-25 21:33N 51°16' E 003°50'4 4.1
2015-Jun-25 20:34N 51°20' E 003°49'4 3.8
2015-Jun-25 19:33N 51°22' E 003°44'4 3.5
2015-Jun-25 18:33N 51°20' E 003°49'0 0.0
2015-Jun-25 17:33N 51°20' E 003°49'0 0.0
2015-Jun-25 16:33N 51°20' E 003°49'0 0.0
2015-Jun-25 15:34N 51°20' E 003°49'0 0.0
2015-Jun-25 14:33N 51°20' E 003°49'0 0.0
2015-Jun-25 13:34N 51°20' E 003°49'0 0.0
2015-Jun-25 12:34N 51°20' E 003°49'0 0.0
2015-Jun-25 11:34N 51°20' E 003°49'0 0.0
2015-Jun-25 10:34N 51°20' E 003°49'0 0.0
2015-Jun-25 09:34N 51°20' E 003°49'0 0.0
2015-Jun-25 08:33N 51°20' E 003°49'2 1.8
2015-Jun-25 07:33N 51°21' E 003°46'2 1.7
2015-Jun-25 06:33N 51°21' E 003°49'0 0.3
2015-Jun-25 05:33N 51°20' E 003°49'2 2.0
2015-Jun-25 04:34N 51°21' E 003°46'5 5.1
2015-Jun-25 03:33N 51°26' E 003°42'2 1.8
2015-Jun-25 02:33N 51°27' E 003°43'4 4.2
2015-Jun-25 01:33N 51°23' E 003°44'4 4.3
2015-Jun-25 00:33N 51°20' E 003°49'0 0.0
2015-Jun-24 23:34N 51°20' E 003°49'0 0.0
2015-Jun-24 22:33N 51°20' E 003°49'0 0.0
2015-Jun-24 21:34N 51°20' E 003°49'0 0.0
2015-Jun-24 20:33N 51°20' E 003°49'0 0.0
2015-Jun-24 19:34N 51°20' E 003°49'0 0.0
2015-Jun-24 18:33N 51°20' E 003°49'0 0.0
2015-Jun-24 17:34N 51°20' E 003°49'0 0.0
2015-Jun-24 16:33N 51°20' E 003°49'1 0.7
2015-Jun-24 15:33N 51°20' E 003°49'5 4.7
2015-Jun-24 14:33N 51°15' E 003°49'6 6.0
2015-Jun-24 13:34N 51°09' E 003°47'4 3.7
2015-Jun-24 12:33N 51°06' E 003°44'6 5.9
2015-Jun-24 11:34N 51°11' E 003°48'5 4.9
2015-Jun-24 10:34N 51°16' E 003°50'4 3.8
2015-Jun-24 09:33N 51°20' E 003°49'2 2.4
2015-Jun-24 08:33N 51°21' E 003°46'2 1.9
2015-Jun-24 07:34N 51°22' E 003°44'4 3.7
2015-Jun-24 06:33N 51°20' E 003°49'0 0.0
2015-Jun-24 05:33N 51°20' E 003°49'0 0.0
2015-Jun-24 04:33N 51°20' E 003°49'0 0.0
2015-Jun-24 03:33N 51°20' E 003°49'1 0.6
2015-Jun-24 02:33N 51°20' E 003°49'3 2.6
2015-Jun-24 01:33N 51°17' E 003°50'3 2.6
2015-Jun-24 00:34N 51°20' E 003°49'0 0.0
2015-Jun-23 23:34N 51°20' E 003°49'1 1.2
2015-Jun-23 22:34N 51°19' E 003°50'5 5.5
2015-Jun-23 21:34N 51°13' E 003°48'7 7.1
2015-Jun-23 20:33N 51°07' E 003°45'1 1.0
2015-Jun-23 19:33N 51°06' E 003°44'0 0.0
2015-Jun-23 19:05N 51°06' E 003°44'15 0.6
2015-Jun-22 19:33N 51°20' E 003°49'1 1.5
2015-Jun-22 18:34N 51°19' E 003°50'4 4.5
2015-Jun-22 17:33N 51°14' E 003°49'5 4.7
2015-Jun-22 16:34N 51°10' E 003°47'3 2.8
2015-Jun-22 15:33N 51°07' E 003°46'1 0.7
2015-Jun-22 14:33N 51°07' E 003°45'0 0.0
2015-Jun-22 13:33N 51°07' E 003°45'0 0.0
2015-Jun-22 12:33N 51°07' E 003°45'0 0.0
2015-Jun-22 11:33N 51°07' E 003°45'0 0.0
2015-Jun-22 10:33N 51°07' E 003°45'0 0.0
2015-Jun-22 09:33N 51°07' E 003°45'0 0.0
2015-Jun-22 08:33N 51°07' E 003°45'0 0.0
2015-Jun-22 07:34N 51°07' E 003°45'0 0.0
2015-Jun-22 06:34N 51°07' E 003°45'0 0.0
2015-Jun-22 05:33N 51°07' E 003°45'0 0.0
2015-Jun-22 04:33N 51°07' E 003°45'0 0.0
2015-Jun-22 03:33N 51°07' E 003°45'0 0.0
2015-Jun-22 02:33N 51°07' E 003°45'0 0.0
2015-Jun-22 01:33N 51°07' E 003°46'0 0.0
2015-Jun-22 00:33N 51°07' E 003°45'0 0.0
2015-Jun-21 23:33N 51°07' E 003°45'0 0.0
2015-Jun-21 22:33N 51°07' E 003°45'1 0.7
2015-Jun-21 21:33N 51°06' E 003°44'0 0.4
2015-Jun-21 20:33N 51°07' E 003°45'6 5.6
2015-Jun-21 19:33N 51°12' E 003°48'6 5.6
2015-Jun-21 18:33N 51°17' E 003°50'2 2.5
2015-Jun-21 17:33N 51°20' E 003°49'6 6.0
2015-Jun-21 16:33N 51°24' E 003°42'4 3.7
2015-Jun-21 15:33N 51°28' E 003°40'0 0.0
2015-Jun-21 14:33N 51°28' E 003°40'0 0.0
2015-Jun-21 13:33N 51°28' E 003°40'0 0.0
2015-Jun-21 12:33N 51°28' E 003°40'0 0.0
2015-Jun-21 11:33N 51°28' E 003°40'0 0.1
2015-Jun-21 10:33N 51°28' E 003°41'0 0.1
2015-Jun-21 09:33N 51°28' E 003°40'0 0.0
2015-Jun-21 08:34N 51°28' E 003°41'0 0.1
2015-Jun-21 07:33N 51°28' E 003°41'2 1.5
2015-Jun-21 06:33N 51°27' E 003°43'2 2.2
2015-Jun-21 05:34N 51°26' E 003°40'1 1.4
2015-Jun-21 04:33N 51°28' E 003°40'0 0.0
2015-Jun-21 03:33N 51°28' E 003°40'1 1.2
2015-Jun-21 02:33N 51°27' E 003°42'1 0.8
2015-Jun-21 01:33N 51°27' E 003°43'2 1.9
2015-Jun-21 00:33N 51°28' E 003°40'0 0.0
2015-Jun-20 23:33N 51°28' E 003°40'0 0.0
2015-Jun-20 22:33N 51°28' E 003°40'0 0.0
2015-Jun-20 21:33N 51°28' E 003°40'  
Track history (hours):
 
Tides and Currents Weather Stations Pressure Air Temp Water Temp Dewpoint Dewpoint Depression Visibility Wind Speed Wind Dir Waves Ship Positions

Smitwijs London

Last reported at 2015-Jun-30 20:34 UTC. Time now 2015-Jun-30 21:22 UTC.
Position N 51°27' E 003°42'.

Length 75 m; beam 16 m.

Type: Tug. MMSI: 244098956.

Date/timePositionNaut miles runAvg speedWind from/ knotsBaromVisibWave heightAir tempDewpointWater temp
2015-Jun-30 20:34N 51°27' E 003°42'0 0.5
2015-Jun-30 19:33N 51°27' E 003°43'0 0.0
2015-Jun-30 18:33N 51°27' E 003°43'0 0.4
2015-Jun-30 17:33N 51°27' E 003°42'1 0.9
2015-Jun-30 16:34N 51°28' E 003°42'1 0.9
2015-Jun-30 15:33N 51°28' E 003°40'0 0.0
2015-Jun-30 14:34N 51°28' E 003°40'0 0.0
2015-Jun-30 13:33N 51°28' E 003°40'0 0.0
2015-Jun-30 12:33N 51°28' E 003°40'0 0.0
2015-Jun-30 11:33N 51°28' E 003°40'0 0.0
2015-Jun-30 10:34N 51°28' E 003°40'0 0.0
2015-Jun-30 09:33N 51°28' E 003°40'0 0.0
2015-Jun-30 08:33N 51°28' E 003°40'0 0.4
2015-Jun-30 07:34N 51°27' E 003°40'0 0.4
2015-Jun-30 06:34N 51°27' E 003°40'1 0.8
2015-Jun-30 05:33N 51°28' E 003°40'0 0.0
2015-Jun-30 04:33N 51°28' E 003°40'0 0.0
2015-Jun-30 03:34N 51°28' E 003°40'0 0.0
2015-Jun-30 02:33N 51°28' E 003°40'0 0.0
2015-Jun-30 01:33N 51°28' E 003°40'0 0.0
2015-Jun-30 00:33N 51°28' E 003°40'0 0.0
2015-Jun-29 23:33N 51°28' E 003°40'0 0.0
2015-Jun-29 22:34N 51°28' E 003°40'0 0.0
2015-Jun-29 21:33N 51°28' E 003°40'0 0.0
2015-Jun-29 20:33N 51°28' E 003°40'0 0.0
2015-Jun-29 19:33N 51°28' E 003°40'2 1.7
2015-Jun-29 18:34N 51°28' E 003°43'2 1.7
2015-Jun-29 17:33N 51°28' E 003°40'0 0.0
2015-Jun-29 16:34N 51°28' E 003°40'2 2.5
2015-Jun-29 15:34N 51°25' E 003°42'1 1.0
2015-Jun-29 14:33N 51°26' E 003°41'2 1.6
2015-Jun-29 13:34N 51°28' E 003°40'5 4.6
2015-Jun-29 12:33N 51°27' E 003°33'5 5.0
2015-Jun-29 11:33N 51°30' E 003°28'5 5.3
2015-Jun-29 10:34N 51°27' E 003°34'3 2.9
2015-Jun-29 09:33N 51°26' E 003°38'3 3.2
2015-Jun-29 08:33N 51°28' E 003°43'0 0.2
2015-Jun-29 07:33N 51°28' E 003°42'0 0.0
2015-Jun-29 06:33N 51°28' E 003°42'0 0.0
2015-Jun-29 05:33N 51°28' E 003°42'0 0.0
2015-Jun-29 04:33N 51°28' E 003°42'0 0.0
2015-Jun-29 03:33N 51°28' E 003°42'0 0.5
2015-Jun-29 02:34N 51°28' E 003°43'2 2.5
2015-Jun-29 01:33N 51°26' E 003°42'7 7.4
2015-Jun-29 00:34N 51°20' E 003°49'0 0.0
2015-Jun-28 23:33N 51°20' E 003°49'0 0.0
2015-Jun-28 22:33N 51°20' E 003°49'0 0.0
2015-Jun-28 21:33N 51°20' E 003°49'0 0.0
2015-Jun-28 20:33N 51°20' E 003°49'0 0.0
2015-Jun-28 19:33N 51°20' E 003°49'0 0.0
2015-Jun-28 18:33N 51°20' E 003°49'0 0.0
2015-Jun-28 17:33N 51°20' E 003°49'0 0.0
2015-Jun-28 16:33N 51°20' E 003°49'0 0.0
2015-Jun-28 15:33N 51°20' E 003°49'0 0.0
2015-Jun-28 14:33N 51°20' E 003°49'0 0.0
2015-Jun-28 13:34N 51°20' E 003°49'0 0.0
2015-Jun-28 12:34N 51°20' E 003°49'1 1.5
2015-Jun-28 11:33N 51°20' E 003°51'0 0.3
2015-Jun-28 10:31N 51°20' E 003°51'1 1.2
2015-Jun-28 09:34N 51°20' E 003°49'0 0.0
2015-Jun-28 08:33N 51°20' E 003°49'0 0.0
2015-Jun-28 07:34N 51°20' E 003°49'0 0.0
2015-Jun-28 06:34N 51°20' E 003°49'0 0.0
2015-Jun-28 05:34N 51°20' E 003°49'0 0.0
2015-Jun-28 04:33N 51°20' E 003°49'0 0.0
2015-Jun-28 03:34N 51°20' E 003°49'0 0.0
2015-Jun-28 02:33N 51°20' E 003°49'0 0.0
2015-Jun-28 01:33N 51°20' E 003°49'0 0.0
2015-Jun-28 00:33N 51°20' E 003°49'0 0.0
2015-Jun-27 23:33N 51°20' E 003°49'0 0.0
2015-Jun-27 22:33N 51°20' E 003°49'0 0.0
2015-Jun-27 21:34N 51°20' E 003°49'0 0.0
2015-Jun-27 20:33N 51°20' E 003°49'0 0.0
2015-Jun-27 19:34N 51°20' E 003°49'0 0.0
2015-Jun-27 18:34N 51°20' E 003°49'0 0.0
2015-Jun-27 17:34N 51°20' E 003°49'0 0.0
2015-Jun-27 16:34N 51°20' E 003°49'0 0.0
2015-Jun-27 15:34N 51°20' E 003°49'0 0.0
2015-Jun-27 14:34N 51°20' E 003°49'0 0.0
2015-Jun-27 13:33N 51°20' E 003°49'0 0.0
2015-Jun-27 12:33N 51°20' E 003°49'0 0.0
2015-Jun-27 11:33N 51°20' E 003°49'0 0.0
2015-Jun-27 10:34N 51°20' E 003°49'0 0.0
2015-Jun-27 09:33N 51°20' E 003°49'0 0.0
2015-Jun-27 08:33N 51°20' E 003°49'0 0.0
2015-Jun-27 07:34N 51°20' E 003°49'0 0.0
2015-Jun-27 06:34N 51°20' E 003°49'0 0.0
2015-Jun-27 05:34N 51°20' E 003°49'0 0.0
2015-Jun-27 04:33N 51°20' E 003°49'2 2.0
2015-Jun-27 03:34N 51°21' E 003°46'2 2.0
2015-Jun-27 02:33N 51°20' E 003°49'0 0.0
2015-Jun-27 01:33N 51°20' E 003°49'0 0.0
2015-Jun-27 00:33N 51°20' E 003°49'0 0.0
2015-Jun-26 23:34N 51°20' E 003°49'0 0.0
2015-Jun-26 22:33N 51°20' E 003°49'0 0.0
2015-Jun-26 21:34N 51°20' E 003°49'3 2.7
2015-Jun-26 20:34N 51°22' E 003°45'3 2.8
2015-Jun-26 19:34N 51°20' E 003°49'0 0.0
2015-Jun-26 18:33N 51°20' E 003°49'0 0.0
2015-Jun-26 17:34N 51°20' E 003°49'1 1.2
2015-Jun-26 16:34N 51°21' E 003°48'1 1.1
2015-Jun-26 15:33N 51°20' E 003°49'0 0.0
2015-Jun-26 14:33N 51°20' E 003°49'0 0.0
2015-Jun-26 13:33N 51°20' E 003°49'0 0.0
2015-Jun-26 12:34N 51°20' E 003°49'0 0.0
2015-Jun-26 11:33N 51°20' E 003°49'0 0.0
2015-Jun-26 10:34N 51°20' E 003°49'0 0.0
2015-Jun-26 09:34N 51°20' E 003°49'0 0.0
2015-Jun-26 08:34N 51°20' E 003°49'0 0.0
2015-Jun-26 07:34N 51°20' E 003°49'0 0.0
2015-Jun-26 06:34N 51°20' E 003°49'0 0.0
2015-Jun-26 05:33N 51°20' E 003°49'0 0.0
2015-Jun-26 04:34N 51°20' E 003°49'0 0.0
2015-Jun-26 03:33N 51°20' E 003°49'1 0.5
2015-Jun-26 02:34N 51°20' E 003°49'0 0.2
2015-Jun-26 01:34N 51°20' E 003°49'8 8.2
2015-Jun-26 00:33N 51°11' E 003°48'5 5.5
2015-Jun-25 23:33N 51°06' E 003°45'4 4.5
2015-Jun-25 22:34N 51°10' E 003°48'6 5.6
2015-Jun-25 21:33N 51°16' E 003°50'4 4.1
2015-Jun-25 20:34N 51°20' E 003°49'4 3.8
2015-Jun-25 19:33N 51°22' E 003°44'4 3.5
2015-Jun-25 18:33N 51°20' E 003°49'0 0.0
2015-Jun-25 17:33N 51°20' E 003°49'0 0.0
2015-Jun-25 16:33N 51°20' E 003°49'0 0.0
2015-Jun-25 15:34N 51°20' E 003°49'0 0.0
2015-Jun-25 14:33N 51°20' E 003°49'0 0.0
2015-Jun-25 13:34N 51°20' E 003°49'0 0.0
2015-Jun-25 12:34N 51°20' E 003°49'0 0.0
2015-Jun-25 11:34N 51°20' E 003°49'0 0.0
2015-Jun-25 10:34N 51°20' E 003°49'0 0.0
2015-Jun-25 09:34N 51°20' E 003°49'0 0.0
2015-Jun-25 08:33N 51°20' E 003°49'2 1.8
2015-Jun-25 07:33N 51°21' E 003°46'2 1.7
2015-Jun-25 06:33N 51°21' E 003°49'0 0.3
2015-Jun-25 05:33N 51°20' E 003°49'2 2.0
2015-Jun-25 04:34N 51°21' E 003°46'5 5.1
2015-Jun-25 03:33N 51°26' E 003°42'2 1.8
2015-Jun-25 02:33N 51°27' E 003°43'4 4.2
2015-Jun-25 01:33N 51°23' E 003°44'4 4.3
2015-Jun-25 00:33N 51°20' E 003°49'0 0.0
2015-Jun-24 23:34N 51°20' E 003°49'0 0.0
2015-Jun-24 22:33N 51°20' E 003°49'0 0.0
2015-Jun-24 21:34N 51°20' E 003°49'0 0.0
2015-Jun-24 20:33N 51°20' E 003°49'0 0.0
2015-Jun-24 19:34N 51°20' E 003°49'0 0.0
2015-Jun-24 18:33N 51°20' E 003°49'0 0.0
2015-Jun-24 17:34N 51°20' E 003°49'0 0.0
2015-Jun-24 16:33N 51°20' E 003°49'1 0.7
2015-Jun-24 15:33N 51°20' E 003°49'5 4.7
2015-Jun-24 14:33N 51°15' E 003°49'6 6.0
2015-Jun-24 13:34N 51°09' E 003°47'4 3.7
2015-Jun-24 12:33N 51°06' E 003°44'6 5.9
2015-Jun-24 11:34N 51°11' E 003°48'5 4.9
2015-Jun-24 10:34N 51°16' E 003°50'4 3.8
2015-Jun-24 09:33N 51°20' E 003°49'2 2.4
2015-Jun-24 08:33N 51°21' E 003°46'2 1.9
2015-Jun-24 07:34N 51°22' E 003°44'4 3.7
2015-Jun-24 06:33N 51°20' E 003°49'0 0.0
2015-Jun-24 05:33N 51°20' E 003°49'0 0.0
2015-Jun-24 04:33N 51°20' E 003°49'0 0.0
2015-Jun-24 03:33N 51°20' E 003°49'1 0.6
2015-Jun-24 02:33N 51°20' E 003°49'3 2.6
2015-Jun-24 01:33N 51°17' E 003°50'3 2.6
2015-Jun-24 00:34N 51°20' E 003°49'0 0.0
2015-Jun-23 23:34N 51°20' E 003°49'1 1.2
2015-Jun-23 22:34N 51°19' E 003°50'5 5.5
2015-Jun-23 21:34N 51°13' E 003°48'7 7.1
2015-Jun-23 20:33N 51°07' E 003°45'1 1.0
2015-Jun-23 19:33N 51°06' E 003°44'0 0.0
2015-Jun-23 19:05N 51°06' E 003°44'15 0.6
2015-Jun-22 19:33N 51°20' E 003°49'1 1.5
2015-Jun-22 18:34N 51°19' E 003°50'4 4.5
2015-Jun-22 17:33N 51°14' E 003°49'5 4.7
2015-Jun-22 16:34N 51°10' E 003°47'3 2.8
2015-Jun-22 15:33N 51°07' E 003°46'1 0.7
2015-Jun-22 14:33N 51°07' E 003°45'0 0.0
2015-Jun-22 13:33N 51°07' E 003°45'0 0.0
2015-Jun-22 12:33N 51°07' E 003°45'0 0.0
2015-Jun-22 11:33N 51°07' E 003°45'0 0.0
2015-Jun-22 10:33N 51°07' E 003°45'0 0.0
2015-Jun-22 09:33N 51°07' E 003°45'0 0.0
2015-Jun-22 08:33N 51°07' E 003°45'0 0.0
2015-Jun-22 07:34N 51°07' E 003°45'0 0.0
2015-Jun-22 06:34N 51°07' E 003°45'0 0.0
2015-Jun-22 05:33N 51°07' E 003°45'0 0.0
2015-Jun-22 04:33N 51°07' E 003°45'0 0.0
2015-Jun-22 03:33N 51°07' E 003°45'0 0.0
2015-Jun-22 02:33N 51°07' E 003°45'0 0.0
2015-Jun-22 01:33N 51°07' E 003°46'0 0.0
2015-Jun-22 00:33N 51°07' E 003°45'0 0.0
2015-Jun-21 23:33N 51°07' E 003°45'0 0.0
2015-Jun-21 22:33N 51°07' E 003°45'1 0.7
2015-Jun-21 21:33N 51°06' E 003°44'0 0.4
2015-Jun-21 20:33N 51°07' E 003°45'6 5.6
2015-Jun-21 19:33N 51°12' E 003°48'6 5.6
2015-Jun-21 18:33N 51°17' E 003°50'2 2.5
2015-Jun-21 17:33N 51°20' E 003°49'6 6.0
2015-Jun-21 16:33N 51°24' E 003°42'4 3.7
2015-Jun-21 15:33N 51°28' E 003°40'0 0.0
2015-Jun-21 14:33N 51°28' E 003°40'0 0.0
2015-Jun-21 13:33N 51°28' E 003°40'0 0.0
2015-Jun-21 12:33N 51°28' E 003°40'0 0.0
2015-Jun-21 11:33N 51°28' E 003°40'0 0.1
2015-Jun-21 10:33N 51°28' E 003°41'0 0.1
2015-Jun-21 09:33N 51°28' E 003°40'0 0.0
2015-Jun-21 08:34N 51°28' E 003°41'0 0.1
2015-Jun-21 07:33N 51°28' E 003°41'2 1.5
2015-Jun-21 06:33N 51°27' E 003°43'2 2.2
2015-Jun-21 05:34N 51°26' E 003°40'1 1.4
2015-Jun-21 04:33N 51°28' E 003°40'0 0.0
2015-Jun-21 03:33N 51°28' E 003°40'1 1.2
2015-Jun-21 02:33N 51°27' E 003°42'1 0.8
2015-Jun-21 01:33N 51°27' E 003°43'2 1.9
2015-Jun-21 00:33N 51°28' E 003°40'0 0.0
2015-Jun-20 23:33N 51°28' E 003°40'0 0.0
2015-Jun-20 22:33N 51°28' E 003°40'0 0.0
2015-Jun-20 21:33N 51°28' E 003°40'  

Dump ship's entire track history